Time;durP1;ratioP1;P1;durP2;ratioP2;P2;SDS_P1;SDS_P2;PMS_P1;PMS_P2;Temp;Humidity;BMP_temperature;BMP_pressure;BME280_temperature;BME280_humidity;BME280_pressure;Samples;Min_cycle;Max_cycle;Signal;HPM_P1;HPM_P2
2022/09/24 00:01:33;;;;;;;36.70;27.38;;;13.30;99.90;;;;;;4976288;28;20052;-75
2022/09/24 00:04:03;;;;;;;39.45;27.80;;;13.40;99.90;;;;;;4976210;28;20054;-77
2022/09/24 00:06:34;;;;;;;43.05;29.38;;;13.20;99.90;;;;;;4976100;28;20050;-76
2022/09/24 00:08:59;;;;;;;36.22;26.58;;;13.30;99.90;;;;;;4976703;28;20130;-78
2022/09/24 00:11:27;;;;;;;39.17;27.92;;;13.20;99.90;;;;;;4976083;28;20121;-77
2022/09/24 00:13:54;;;;;;;40.70;28.83;;;13.30;99.90;;;;;;4976334;28;20055;-77
2022/09/24 00:16:24;;;;;;;41.88;29.92;;;13.30;99.90;;;;;;4978634;28;20048;-77
2022/09/24 00:18:50;;;;;;;44.17;30.05;;;13.20;99.90;;;;;;4978314;28;20053;-77
2022/09/24 00:21:25;;;;;;;42.38;29.80;;;13.50;99.90;;;;;;4974632;28;20097;-78
2022/09/24 00:23:54;;;;;;;39.10;28.98;;;13.30;99.90;;;;;;4975876;28;20066;-77
2022/09/24 00:29:06;;;;;;;44.78;31.40;;;13.30;99.90;;;;;;4975801;28;20086;-79
2022/09/24 00:31:31;;;;;;;42.45;31.48;;;13.30;99.90;;;;;;4975014;28;20050;-77
2022/09/24 00:33:57;;;;;;;52.05;34.55;;;13.30;99.90;;;;;;4975649;28;20515;-78
2022/09/24 00:36:24;;;;;;;48.70;34.53;;;13.20;99.90;;;;;;4975387;28;20143;-77
2022/09/24 00:38:51;;;;;;;51.67;36.47;;;13.30;99.90;;;;;;4975931;28;20133;-76
2022/09/24 00:41:19;;;;;;;51.53;34.60;;;13.40;99.90;;;;;;4973903;28;20108;-77
2022/09/24 00:43:47;;;;;;;47.28;34.00;;;13.40;99.90;;;;;;4975431;28;20047;-77
2022/09/24 00:46:19;;;;;;;46.33;32.33;;;13.20;99.90;;;;;;4975390;28;20405;-76
2022/09/24 00:48:47;;;;;;;44.85;31.48;;;13.30;99.90;;;;;;4974503;28;20392;-78
2022/09/24 00:51:17;;;;;;;50.45;35.05;;;13.40;99.90;;;;;;4975485;28;20478;-77
2022/09/24 00:53:46;;;;;;;44.53;30.42;;;13.60;99.90;;;;;;4975217;28;20047;-76
2022/09/24 00:56:15;;;;;;;51.53;34.78;;;13.60;99.90;;;;;;4973964;28;20072;-76
2022/09/24 00:58:46;;;;;;;44.50;33.17;;;13.40;99.90;;;;;;4975117;28;20061;-79
2022/09/24 01:01:13;;;;;;;60.53;39.63;;;13.40;99.90;;;;;;4957772;28;20538;-77
2022/09/24 01:03:41;;;;;;;60.80;39.25;;;13.40;99.90;;;;;;4973921;28;20062;-77
2022/09/24 01:06:10;;;;;;;53.95;36.03;;;13.30;99.90;;;;;;4973904;28;20053;-77
2022/09/24 01:08:36;;;;;;;61.47;38.72;;;13.40;99.90;;;;;;4973911;28;20051;-77
2022/09/24 01:11:11;;;;;;;51.92;36.53;;;13.60;99.90;;;;;;4974077;28;20097;-76
2022/09/24 01:14:01;;;;;;;59.15;39.95;;;13.60;99.90;;;;;;4975884;28;20062;-76
2022/09/24 01:16:45;;;;;;;66.47;43.88;;;13.40;99.90;;;;;;4975555;28;20051;-76
2022/09/24 01:19:43;;;;;;;69.70;44.25;;;13.50;99.90;;;;;;4975070;28;20097;-75
2022/09/24 01:22:31;;;;;;;75.25;46.72;;;13.70;99.90;;;;;;4975708;28;20134;-77
2022/09/24 01:25:23;;;;;;;67.60;45.00;;;13.40;99.90;;;;;;4975146;28;20054;-77
2022/09/24 01:28:27;;;;;;;76.77;45.87;;;13.50;99.90;;;;;;4974087;28;20074;-77
2022/09/24 01:31:01;;;;;;;73.78;46.97;;;13.40;99.90;;;;;;4974075;28;20145;-77
2022/09/24 01:33:30;;;;;;;78.50;48.80;;;13.30;99.90;;;;;;4975079;28;20486;-77
2022/09/24 01:36:03;;;;;;;64.10;43.60;;;13.40;99.90;;;;;;4974903;28;20061;-77
2022/09/24 01:38:33;;;;;;;70.30;47.65;;;13.40;99.90;;;;;;4974926;28;20121;-77
2022/09/24 01:41:02;;;;;;;71.05;45.42;;;13.40;99.90;;;;;;4974839;28;20493;-76
2022/09/24 01:43:29;;;;;;;79.72;48.60;;;13.40;99.90;;;;;;4974197;28;20250;-77
2022/09/24 01:45:57;;;;;;;75.72;45.67;;;13.30;99.90;;;;;;4974659;28;20051;-76
2022/09/24 01:48:26;;;;;;;69.45;44.45;;;13.40;99.90;;;;;;4975601;28;20046;-77
2022/09/24 01:51:13;;;;;;;78.03;46.97;;;13.40;99.90;;;;;;4973622;28;20042;-77
2022/09/24 01:54:02;;;;;;;78.40;46.08;;;13.80;99.90;;;;;;4974223;28;20062;-77
2022/09/24 01:56:40;;;;;;;66.72;43.88;;;13.40;99.90;;;;;;4974063;28;20093;-77
2022/09/24 01:59:15;;;;;;;66.75;43.72;;;13.20;99.90;;;;;;4974623;28;20066;-77
2022/09/24 02:02:00;;;;;;;86.20;48.30;;;13.30;99.90;;;;;;4974075;28;20086;-76
2022/09/24 02:04:29;;;;;;;67.47;42.25;;;13.50;99.90;;;;;;4974573;28;20117;-76
2022/09/24 02:07:04;;;;;;;81.57;45.88;;;13.40;99.90;;;;;;4974663;28;20053;-77
2022/09/24 02:09:41;;;;;;;74.80;43.35;;;13.40;99.90;;;;;;4974562;28;20043;-77
2022/09/24 02:12:19;;;;;;;70.40;45.80;;;13.40;99.90;;;;;;4974637;28;20051;-76
2022/09/24 02:14:53;;;;;;;60.63;41.08;;;13.40;99.90;;;;;;4975366;28;20102;-76
2022/09/24 02:17:22;;;;;;;68.93;43.72;;;13.50;99.90;;;;;;4975164;28;20085;-76
2022/09/24 02:19:51;;;;;;;72.10;46.00;;;13.80;99.90;;;;;;4973856;28;20043;-76
2022/09/24 02:22:17;;;;;;;82.50;50.17;;;13.50;99.90;;;;;;4974328;28;20055;-76
2022/09/24 02:24:54;;;;;;;87.75;51.25;;;13.70;99.90;;;;;;4974460;28;20102;-76
2022/09/24 02:27:20;;;;;;;84.03;51.15;;;13.40;99.90;;;;;;4974788;28;20484;-77
2022/09/24 02:29:46;;;;;;;82.00;49.88;;;13.50;99.90;;;;;;4974486;28;20069;-76
2022/09/24 02:32:15;;;;;;;81.18;49.50;;;13.50;99.90;;;;;;4974428;28;20048;-77
2022/09/24 02:34:48;;;;;;;79.70;49.58;;;13.30;99.90;;;;;;4974390;28;20046;-76
2022/09/24 02:37:15;;;;;;;96.55;54.03;;;13.60;99.90;;;;;;4974977;28;20058;-77
2022/09/24 02:39:41;;;;;;;79.00;48.03;;;13.40;99.90;;;;;;4974241;28;20051;-77
2022/09/24 02:42:10;;;;;;;76.72;48.50;;;13.50;99.90;;;;;;4974363;28;20055;-76
2022/09/24 02:44:36;;;;;;;78.65;48.55;;;13.40;99.90;;;;;;4974280;28;20178;-77
2022/09/24 02:47:02;;;;;;;80.90;48.58;;;13.50;99.90;;;;;;4975095;28;20054;-77
2022/09/24 02:49:27;;;;;;;75.18;46.45;;;13.50;99.90;;;;;;4973119;28;20055;-77
2022/09/24 02:51:54;;;;;;;70.50;45.10;;;13.50;99.90;;;;;;4973099;28;20046;-77
2022/09/24 02:54:21;;;;;;;71.25;43.58;;;13.50;99.90;;;;;;4976033;28;20066;-77
2022/09/24 02:56:47;;;;;;;65.95;43.42;;;13.40;99.90;;;;;;4977603;28;20093;-77
2022/09/24 02:59:13;;;;;;;70.30;43.97;;;13.40;99.90;;;;;;4976710;28;20039;-77
2022/09/24 03:01:38;;;;;;;71.50;44.60;;;13.40;99.90;;;;;;4977438;28;20379;-78
2022/09/24 03:04:04;;;;;;;72.63;45.00;;;13.40;99.90;;;;;;4977651;28;20042;-77
2022/09/24 03:06:30;;;;;;;70.10;44.08;;;13.70;99.90;;;;;;4976635;28;20101;-78
2022/09/24 03:08:56;;;;;;;65.45;41.20;;;13.40;99.90;;;;;;4978010;28;20053;-78
2022/09/24 03:11:22;;;;;;;76.22;45.15;;;13.50;99.90;;;;;;4976361;28;20054;-78
2022/09/24 03:13:49;;;;;;;62.47;40.25;;;13.30;99.90;;;;;;4960382;28;20390;-79
2022/09/24 03:16:16;;;;;;;72.28;44.67;;;13.70;99.90;;;;;;4977113;28;20479;-79
2022/09/24 03:18:42;;;;;;;72.28;44.65;;;13.40;99.90;;;;;;4977444;28;20058;-79
2022/09/24 03:21:10;;;;;;;68.40;44.22;;;13.30;99.90;;;;;;4960302;28;20050;-79
2022/09/24 03:23:36;;;;;;;92.22;50.22;;;13.30;99.90;;;;;;4977362;28;20054;-79
2022/09/24 03:26:03;;;;;;;69.88;45.00;;;13.40;99.90;;;;;;4976967;28;20525;-78
2022/09/24 03:28:30;;;;;;;74.90;45.53;;;13.40;99.90;;;;;;4944405;28;20114;-78
2022/09/24 03:30:58;;;;;;;91.63;50.15;;;13.60;99.90;;;;;;4976861;28;20525;-79
2022/09/24 03:33:26;;;;;;;83.18;49.22;;;13.40;99.90;;;;;;4976128;28;20042;-80
2022/09/24 03:35:59;;;;;;;92.60;50.08;;;13.40;99.90;;;;;;4977282;28;20063;-79
2022/09/24 03:38:26;;;;;;;98.85;52.88;;;13.40;99.90;;;;;;4976614;28;20133;-79
2022/09/24 03:40:52;;;;;;;111.55;53.45;;;13.40;99.90;;;;;;4975786;28;20134;-79
2022/09/24 03:43:18;;;;;;;91.75;49.25;;;13.40;99.90;;;;;;4976904;28;20133;-79
2022/09/24 03:45:44;;;;;;;98.03;51.00;;;13.60;99.90;;;;;;4975757;28;20042;-79
2022/09/24 03:48:10;;;;;;;88.80;49.08;;;13.50;99.90;;;;;;4960200;28;20062;-80
2022/09/24 03:50:36;;;;;;;120.40;54.92;;;13.40;99.90;;;;;;4975655;28;20495;-79
2022/09/24 03:53:02;;;;;;;122.93;57.92;;;13.40;99.90;;;;;;4976770;28;20053;-79
2022/09/24 03:55:28;;;;;;;116.30;57.22;;;13.40;99.90;;;;;;4976690;28;20057;-79
2022/09/24 03:57:54;;;;;;;124.45;57.20;;;13.20;99.90;;;;;;4976669;28;20047;-79
2022/09/24 04:00:19;;;;;;;109.93;54.38;;;13.40;99.90;;;;;;4976531;28;20479;-79
2022/09/24 04:02:45;;;;;;;144.55;62.30;;;13.50;99.90;;;;;;4959450;28;20050;-79
2022/09/24 04:05:11;;;;;;;151.25;62.92;;;13.40;99.90;;;;;;4974815;28;20487;-78
2022/09/24 04:07:36;;;;;;;102.45;54.25;;;13.40;99.90;;;;;;4976486;28;20043;-79
2022/09/24 04:10:03;;;;;;;125.28;59.55;;;13.30;99.90;;;;;;4975208;28;20046;-78
2022/09/24 04:12:28;;;;;;;107.30;55.65;;;13.30;99.90;;;;;;4976479;28;20046;-79
2022/09/24 04:14:54;;;;;;;145.65;65.10;;;13.40;99.90;;;;;;4976211;28;20562;-78
2022/09/24 04:17:20;;;;;;;184.00;69.93;;;13.50;99.90;;;;;;4975630;28;20391;-79
2022/09/24 04:19:45;;;;;;;131.15;60.78;;;13.50;99.90;;;;;;4975158;28;20042;-79
2022/09/24 04:22:11;;;;;;;168.63;64.45;;;13.50;99.90;;;;;;4974952;28;20535;-79
2022/09/24 04:24:37;;;;;;;136.30;61.95;;;13.30;99.90;;;;;;4976430;28;20058;-79
2022/09/24 04:27:02;;;;;;;132.30;59.65;;;13.30;99.90;;;;;;4975412;28;20109;-79
2022/09/24 04:29:28;;;;;;;254.10;80.90;;;13.30;99.90;;;;;;4976345;28;20051;-79
2022/09/24 04:31:55;;;;;;;117.07;57.95;;;13.40;99.90;;;;;;4977084;28;20051;-79
2022/09/24 04:34:20;;;;;;;148.23;62.80;;;13.40;99.90;;;;;;4974856;28;20062;-78
2022/09/24 04:36:46;;;;;;;132.05;61.47;;;13.40;99.90;;;;;;4976118;28;20055;-79
2022/09/24 04:39:12;;;;;;;194.98;72.68;;;13.30;99.90;;;;;;4974830;28;20130;-79
2022/09/24 04:41:39;;;;;;;152.68;64.95;;;13.30;99.90;;;;;;4975778;28;20114;-79
2022/09/24 04:44:04;;;;;;;209.20;71.95;;;13.30;99.90;;;;;;4975846;28;20134;-79
2022/09/24 04:46:33;;;;;;;155.43;65.43;;;13.30;99.90;;;;;;4974768;28;20137;-80
2022/09/24 04:48:59;;;;;;;121.93;54.17;;;13.50;99.90;;;;;;4975356;28;20423;-79
2022/09/24 04:51:25;;;;;;;135.25;60.53;;;13.30;99.90;;;;;;4975346;28;20514;-78
2022/09/24 04:53:50;;;;;;;139.55;59.80;;;13.30;99.90;;;;;;4975546;28;20051;-79
2022/09/24 04:56:16;;;;;;;150.15;64.28;;;13.30;99.90;;;;;;4975622;28;20047;-79
2022/09/24 04:58:42;;;;;;;164.63;66.03;;;13.30;99.90;;;;;;4975459;28;20091;-79
2022/09/24 05:01:08;;;;;;;152.32;62.05;;;13.30;99.90;;;;;;4975482;28;20042;-79
2022/09/24 05:03:34;;;;;;;150.23;64.47;;;13.00;99.90;;;;;;4974271;28;20060;-78
2022/09/24 05:06:00;;;;;;;144.52;64.38;;;13.20;99.90;;;;;;4974239;28;20047;-79
2022/09/24 05:08:26;;;;;;;155.60;65.80;;;13.20;99.90;;;;;;4974373;28;20398;-81
2022/09/24 05:10:53;;;;;;;142.80;60.72;;;13.10;99.90;;;;;;4974407;28;20049;-79
2022/09/24 05:13:19;;;;;;;177.13;68.82;;;13.30;99.90;;;;;;4975857;28;20047;-79
2022/09/24 05:15:44;;;;;;;151.70;64.07;;;13.30;99.90;;;;;;4975298;28;20391;-79
2022/09/24 05:18:10;;;;;;;133.45;59.33;;;13.20;99.90;;;;;;4974936;28;20046;-79
2022/09/24 05:20:36;;;;;;;150.10;63.60;;;13.20;99.90;;;;;;4975342;28;20047;-79
2022/09/24 05:23:02;;;;;;;127.18;59.30;;;13.50;99.90;;;;;;4975146;28;20065;-79
2022/09/24 05:25:27;;;;;;;177.65;70.82;;;13.30;99.90;;;;;;4973995;28;20053;-80
2022/09/24 05:27:54;;;;;;;128.23;61.10;;;13.20;99.90;;;;;;4974151;28;20167;-79
2022/09/24 05:30:22;;;;;;;233.68;77.88;;;13.30;99.90;;;;;;4975587;28;20129;-79
2022/09/24 05:32:51;;;;;;;135.38;60.45;;;13.20;99.90;;;;;;4974146;28;20395;-79
2022/09/24 05:35:22;;;;;;;165.65;63.70;;;13.20;99.90;;;;;;4974705;28;20050;-77
2022/09/24 05:37:48;;;;;;;128.48;55.90;;;13.10;99.90;;;;;;4974837;28;20483;-78
2022/09/24 05:43:02;;;;;;;158.10;63.08;;;13.30;99.90;;;;;;4974954;28;20113;-78
2022/09/24 05:45:30;;;;;;;141.40;60.70;;;13.30;99.90;;;;;;4974713;28;20050;-78
2022/09/24 05:47:56;;;;;;;122.07;55.47;;;13.30;99.90;;;;;;4974844;28;20475;-79
2022/09/24 05:50:22;;;;;;;134.35;59.60;;;13.30;99.90;;;;;;4973867;28;20057;-79
2022/09/24 05:52:47;;;;;;;226.18;74.43;;;13.30;99.90;;;;;;4974798;28;20047;-79
2022/09/24 05:55:13;;;;;;;195.02;70.00;;;13.40;99.90;;;;;;4973618;28;20043;-78
2022/09/24 05:57:39;;;;;;;226.55;70.40;;;13.30;99.90;;;;;;4974714;28;20043;-79
2022/09/24 06:00:06;;;;;;;110.78;49.97;;;13.50;99.90;;;;;;4957577;28;20467;-79
2022/09/24 06:02:32;;;;;;;146.57;55.92;;;13.40;99.90;;;;;;4974708;28;20055;-79
2022/09/24 06:04:57;;;;;;;115.95;53.78;;;13.30;99.90;;;;;;4975004;28;20077;-78
2022/09/24 06:07:23;;;;;;;193.90;63.95;;;13.30;99.90;;;;;;4974678;28;20467;-79
2022/09/24 06:09:49;;;;;;;207.55;65.20;;;13.40;99.90;;;;;;4973623;28;20466;-79
2022/09/24 06:12:16;;;;;;;122.60;50.38;;;13.40;99.90;;;;;;4973923;28;20527;-79
2022/09/24 06:14:42;;;;;;;117.70;49.92;;;13.40;99.90;;;;;;4974659;28;20046;-79
2022/09/24 06:17:09;;;;;;;85.18;42.97;;;13.40;99.90;;;;;;4974845;28;20053;-78
2022/09/24 06:19:35;;;;;;;158.80;55.75;;;13.40;99.90;;;;;;4974485;28;20475;-79
2022/09/24 06:22:01;;;;;;;86.07;41.70;;;13.50;99.90;;;;;;4974498;28;20053;-79
2022/09/24 06:24:26;;;;;;;93.65;44.47;;;13.50;99.90;;;;;;4974276;28;20134;-78
2022/09/24 06:26:52;;;;;;;99.43;45.05;;;13.40;99.90;;;;;;4974487;28;20047;-78
2022/09/24 06:29:18;;;;;;;86.65;40.95;;;13.30;99.90;;;;;;4976383;28;20047;-78
2022/09/24 06:31:44;;;;;;;97.85;43.45;;;13.40;99.90;;;;;;4977143;28;20117;-78
2022/09/24 06:34:10;;;;;;;84.20;41.10;;;13.50;99.90;;;;;;4977531;28;20101;-79
2022/09/24 06:36:36;;;;;;;94.07;41.97;;;13.50;99.90;;;;;;4978325;28;20134;-79
2022/09/24 06:39:03;;;;;;;84.85;39.97;;;13.50;99.90;;;;;;4978053;28;20595;-79
2022/09/24 06:41:28;;;;;;;89.70;38.55;;;13.50;99.90;;;;;;4976811;28;20039;-79
2022/09/24 06:43:54;;;;;;;83.20;36.45;;;13.50;99.90;;;;;;4960983;28;20054;-78
2022/09/24 06:46:22;;;;;;;82.35;36.05;;;13.60;99.90;;;;;;4977959;28;20051;-78
2022/09/24 06:48:48;;;;;;;74.18;34.53;;;13.60;99.90;;;;;;4977949;28;20055;-78
2022/09/24 06:51:14;;;;;;;31.83;16.10;;;13.60;99.90;;;;;;4977886;28;20042;-78
2022/09/24 06:53:40;;;;;;;21.05;8.68;;;13.60;99.90;;;;;;4976678;28;20054;-78
2022/09/24 06:56:06;;;;;;;14.50;6.88;;;13.50;99.90;;;;;;4976890;28;20051;-78
2022/09/24 06:58:32;;;;;;;10.10;2.90;;;13.70;99.90;;;;;;4976848;28;20050;-79
2022/09/24 07:01:01;;;;;;;13.85;2.55;;;13.70;99.90;;;;;;4977667;28;20125;-79
2022/09/24 07:03:32;;;;;;;7.63;1.42;;;13.60;99.90;;;;;;4977880;28;20100;-78
2022/09/24 07:06:03;;;;;;;8.50;1.20;;;13.60;99.90;;;;;;4978630;28;20134;-79
2022/09/24 07:08:29;;;;;;;7.13;1.15;;;13.70;99.90;;;;;;4976922;28;20055;-78
2022/09/24 07:10:55;;;;;;;6.65;1.73;;;13.60;99.90;;;;;;4977647;28;20446;-78
2022/09/24 07:13:21;;;;;;;9.23;1.25;;;13.50;99.90;;;;;;4976726;28;20058;-78
2022/09/24 07:15:49;;;;;;;7.32;1.27;;;13.60;99.90;;;;;;4960362;28;20043;-78
2022/09/24 07:18:16;;;;;;;9.95;2.13;;;13.60;99.90;;;;;;4977587;28;20101;-78
2022/09/24 07:20:42;;;;;;;5.45;1.08;;;13.60;99.90;;;;;;4977409;28;20126;-78
2022/09/24 07:23:10;;;;;;;7.93;1.13;;;13.50;99.90;;;;;;4977908;28;20082;-78
2022/09/24 07:25:36;;;;;;;7.80;1.20;;;13.70;99.90;;;;;;4976326;28;20126;-79
2022/09/24 07:28:08;;;;;;;6.82;1.13;;;13.60;99.90;;;;;;4977123;28;20495;-79
2022/09/24 07:30:34;;;;;;;6.90;1.00;;;13.60;99.90;;;;;;4977463;28;20494;-79
2022/09/24 07:33:00;;;;;;;6.00;0.98;;;13.60;99.90;;;;;;4976395;28;20109;-78
2022/09/24 07:35:27;;;;;;;9.80;1.00;;;13.60;99.90;;;;;;4976476;28;20125;-75
2022/09/24 07:38:01;;;;;;;5.60;0.98;;;13.50;99.90;;;;;;4977170;28;20194;-78
2022/09/24 07:40:27;;;;;;;3.90;0.90;;;13.80;99.90;;;;;;4977514;28;20049;-79
2022/09/24 07:42:54;;;;;;;8.15;0.95;;;13.80;99.90;;;;;;4977221;28;20051;-79
2022/09/24 07:45:20;;;;;;;6.30;1.17;;;13.60;99.90;;;;;;4976945;28;20054;-79
2022/09/24 07:47:46;;;;;;;4.63;1.00;;;13.60;99.90;;;;;;4976104;28;20054;-80
2022/09/24 07:50:12;;;;;;;5.93;1.00;;;13.60;99.90;;;;;;4977771;28;20051;-79
2022/09/24 07:52:38;;;;;;;10.50;1.02;;;13.70;99.90;;;;;;4975970;28;20554;-79
2022/09/24 07:55:05;;;;;;;6.18;1.52;;;13.70;99.90;;;;;;4975997;28;20487;-78
2022/09/24 07:57:31;;;;;;;6.32;1.75;;;13.80;99.90;;;;;;4976902;28;20446;-76
2022/09/24 07:59:56;;;;;;;6.93;1.10;;;13.80;99.90;;;;;;4975470;28;20043;-78
2022/09/24 08:02:23;;;;;;;5.90;1.23;;;13.70;99.90;;;;;;4976746;28;20047;-78
2022/09/24 08:04:49;;;;;;;7.65;0.95;;;13.70;99.90;;;;;;4976692;28;20129;-77
2022/09/24 08:07:15;;;;;;;5.55;1.00;;;13.70;99.90;;;;;;4959737;28;20129;-78
2022/09/24 08:09:41;;;;;;;3.75;0.80;;;13.80;99.90;;;;;;4977619;28;20047;-77
2022/09/24 08:12:07;;;;;;;3.95;0.77;;;13.80;99.90;;;;;;4976467;28;20547;-75
2022/09/24 08:14:33;;;;;;;5.72;0.70;;;13.80;99.90;;;;;;4977084;28;20391;-78
2022/09/24 08:17:00;;;;;;;6.05;0.85;;;14.00;99.90;;;;;;4975539;28;20051;-77
2022/09/24 08:19:27;;;;;;;6.80;1.30;;;13.80;99.90;;;;;;4976167;28;20055;-77
2022/09/24 08:21:52;;;;;;;6.40;1.40;;;13.80;99.90;;;;;;4976444;28;20054;-76
2022/09/24 08:24:18;;;;;;;6.95;1.20;;;13.80;99.90;;;;;;4975391;28;20047;-76
2022/09/24 08:26:44;;;;;;;7.15;1.17;;;13.90;99.90;;;;;;4976833;28;20423;-76
2022/09/24 08:29:09;;;;;;;5.88;1.10;;;13.90;99.90;;;;;;4975681;28;20380;-76
2022/09/24 08:31:36;;;;;;;10.27;1.63;;;13.80;99.90;;;;;;4976288;28;20038;-77
2022/09/24 08:34:01;;;;;;;11.73;1.30;;;13.80;99.90;;;;;;4976746;28;20050;-76
2022/09/24 08:36:27;;;;;;;11.13;1.60;;;13.80;99.90;;;;;;4976034;28;20071;-76
2022/09/24 08:38:54;;;;;;;9.48;1.40;;;13.90;99.90;;;;;;4974816;28;20491;-77
2022/09/24 08:41:32;;;;;;;4.25;1.30;;;14.00;99.90;;;;;;4975039;28;20097;-78
2022/09/24 08:44:01;;;;;;;8.95;1.25;;;14.00;99.90;;;;;;4976074;28;20046;-77
2022/09/24 08:49:33;;;;;;;7.65;0.93;;;14.00;99.90;;;;;;4975925;28;20069;-77
2022/09/24 08:52:23;;;;;;;6.65;1.58;;;14.00;99.90;;;;;;4975977;28;20050;-78
2022/09/24 08:54:51;;;;;;;11.90;1.90;;;14.10;99.90;;;;;;4975832;28;20051;-77
2022/09/24 08:57:19;;;;;;;8.38;1.77;;;14.10;99.90;;;;;;4975784;28;20078;-76
2022/09/24 08:59:50;;;;;;;9.30;1.30;;;14.10;99.90;;;;;;4975678;28;20046;-77
2022/09/24 09:02:54;;;;;;;7.68;1.92;;;14.00;99.90;;;;;;4976000;28;20047;-77
2022/09/24 09:05:41;;;;;;;6.88;1.15;;;14.00;99.90;;;;;;4976263;28;20051;-77
2022/09/24 09:08:10;;;;;;;10.07;1.30;;;14.10;99.90;;;;;;4958609;28;20094;-75
2022/09/24 09:10:39;;;;;;;7.05;1.33;;;13.90;99.90;;;;;;4975330;28;20050;-75
2022/09/24 09:13:05;;;;;;;4.70;1.30;;;14.10;99.90;;;;;;4975141;28;20558;-77
2022/09/24 09:15:40;;;;;;;6.00;1.45;;;14.10;99.90;;;;;;4975673;28;20130;-77
2022/09/24 09:18:19;;;;;;;8.02;1.05;;;14.10;99.90;;;;;;4975046;28;20431;-75
2022/09/24 09:20:48;;;;;;;5.90;1.15;;;14.00;99.90;;;;;;4976181;28;20133;-75
2022/09/24 09:23:26;;;;;;;8.60;1.00;;;14.40;99.90;;;;;;4975340;28;20129;-74
2022/09/24 09:25:58;;;;;;;5.82;1.00;;;14.20;99.90;;;;;;4975043;28;20498;-78
2022/09/24 09:28:26;;;;;;;4.70;1.00;;;14.20;99.90;;;;;;4975178;28;20137;-77
2022/09/24 09:31:17;;;;;;;5.57;0.90;;;14.20;99.90;;;;;;4974268;28;20495;-75
2022/09/24 09:33:58;;;;;;;5.65;1.45;;;14.20;99.90;;;;;;4975785;28;20484;-76
2022/09/24 09:36:24;;;;;;;5.38;1.13;;;14.30;99.90;;;;;;4975844;28;20062;-75
2022/09/24 09:38:52;;;;;;;6.65;0.93;;;14.30;99.90;;;;;;4974814;28;20550;-76
2022/09/24 09:41:22;;;;;;;7.32;1.27;;;14.20;99.90;;;;;;4975009;28;20078;-75
2022/09/24 09:43:48;;;;;;;10.57;1.10;;;14.20;99.90;;;;;;4974294;28;20509;-75
2022/09/24 09:46:22;;;;;;;6.65;1.25;;;14.20;99.90;;;;;;4974996;28;20046;-77
2022/09/24 09:48:53;;;;;;;11.00;1.10;;;14.20;99.90;;;;;;4974069;28;20138;-78
2022/09/24 09:51:21;;;;;;;9.25;1.10;;;14.30;99.90;;;;;;4974966;28;20407;-77
2022/09/24 09:53:54;;;;;;;7.97;1.35;;;14.20;99.90;;;;;;4974008;28;20061;-74
2022/09/24 09:56:29;;;;;;;5.22;1.23;;;14.20;99.90;;;;;;4974801;28;20375;-74
2022/09/24 09:59:10;;;;;;;6.30;1.13;;;14.20;99.90;;;;;;4974677;28;20086;-76
2022/09/24 10:01:42;;;;;;;9.65;1.20;;;14.20;99.90;;;;;;4975383;28;20082;-76
2022/09/24 10:04:31;;;;;;;3.53;0.80;;;14.20;99.90;;;;;;4976911;28;20050;-76
2022/09/24 10:07:23;;;;;;;7.03;1.10;;;14.20;99.90;;;;;;4979666;28;20051;-74
2022/09/24 10:10:12;;;;;;;6.32;0.90;;;13.80;99.90;;;;;;4975713;28;20058;-73
2022/09/24 10:12:37;;;;;;;6.38;1.10;;;14.20;99.90;;;;;;4977686;28;20102;-75
2022/09/24 10:15:19;;;;;;;5.97;0.80;;;14.20;99.90;;;;;;4961985;28;20086;-73
2022/09/24 10:17:49;;;;;;;6.13;0.80;;;14.20;99.90;;;;;;4978360;28;20042;-76
2022/09/24 10:20:26;;;;;;;4.30;0.60;;;14.10;99.90;;;;;;4978774;28;20390;-75
2022/09/24 10:23:20;;;;;;;7.40;1.15;;;14.20;99.90;;;;;;4979147;28;20194;-74
2022/09/24 10:25:53;;;;;;;5.35;0.70;;;14.20;99.90;;;;;;4976800;28;20077;-74
2022/09/24 10:31:10;;;;;;;5.88;0.80;;;14.10;99.90;;;;;;4978437;28;20043;-76
2022/09/24 10:33:38;;;;;;;4.25;0.88;;;14.10;99.90;;;;;;4979497;28;20379;-76
2022/09/24 10:36:13;;;;;;;3.42;0.55;;;14.20;99.90;;;;;;4978019;28;20479;-75
2022/09/24 10:38:39;;;;;;;7.28;1.00;;;14.10;99.90;;;;;;4977582;28;20066;-74
2022/09/24 10:41:27;;;;;;;5.35;0.60;;;14.10;99.90;;;;;;4977689;28;20039;-74
2022/09/24 10:43:55;;;;;;;7.68;1.40;;;14.10;99.90;;;;;;4977130;28;20047;-75
2022/09/24 10:46:42;;;;;;;3.95;0.63;;;14.00;99.90;;;;;;4961734;28;20061;-74
2022/09/24 10:49:49;;;;;;;4.90;0.70;;;14.10;99.90;;;;;;4978989;28;20074;-73
2022/09/24 10:52:42;;;;;;;4.68;0.60;;;14.20;99.90;;;;;;4977875;28;20493;-73
2022/09/24 10:55:36;;;;;;;1.73;0.40;;;14.10;99.90;;;;;;4977492;28;20050;-74
2022/09/24 10:58:21;;;;;;;3.60;0.50;;;14.30;99.90;;;;;;4977786;28;20499;-73
2022/09/24 11:01:25;;;;;;;3.38;0.50;;;14.10;99.90;;;;;;4977918;28;20051;-73
2022/09/24 11:03:56;;;;;;;4.03;0.60;;;14.10;99.90;;;;;;4978498;28;20046;-73
2022/09/24 11:06:25;;;;;;;4.72;0.40;;;14.10;99.90;;;;;;4978091;28;20499;-72
2022/09/24 11:09:16;;;;;;;3.40;0.60;;;14.10;99.90;;;;;;4977832;28;20117;-79
2022/09/24 11:11:51;;;;;;;2.38;0.43;;;14.30;99.90;;;;;;4977640;28;20054;-75
2022/09/24 11:14:50;;;;;;;4.38;0.80;;;14.20;99.90;;;;;;4976219;28;20564;-81
2022/09/24 11:17:32;;;;;;;5.40;0.90;;;14.10;99.90;;;;;;4977680;28;20042;-76
2022/09/24 11:20:10;;;;;;;2.92;0.77;;;14.20;99.90;;;;;;4978425;28;20055;-76
2022/09/24 11:22:57;;;;;;;6.10;0.60;;;14.20;99.90;;;;;;4976942;28;20047;-75
2022/09/24 11:25:41;;;;;;;2.75;0.60;;;14.10;99.90;;;;;;4977801;28;20078;-76
2022/09/24 11:28:13;;;;;;;4.10;0.55;;;14.10;99.90;;;;;;4977547;28;20082;-76
2022/09/24 11:30:57;;;;;;;3.83;0.70;;;14.30;99.90;;;;;;4977527;28;20042;-76
2022/09/24 11:34:00;;;;;;;5.20;0.90;;;14.30;99.90;;;;;;4977564;28;20046;-75
2022/09/24 11:36:40;;;;;;;4.60;0.68;;;14.20;99.90;;;;;;4977471;28;20063;-76
2022/09/24 11:39:12;;;;;;;5.53;1.30;;;14.20;99.90;;;;;;4960114;28;20058;-79
2022/09/24 11:41:59;;;;;;;5.60;0.70;;;14.10;99.90;;;;;;4977194;28;20047;-80
2022/09/24 11:44:51;;;;;;;3.90;0.60;;;14.20;99.90;;;;;;4977267;28;20042;-77
2022/09/24 11:47:50;;;;;;;4.80;0.95;;;14.20;99.90;;;;;;4977201;28;20138;-84
2022/09/24 11:50:33;;;;;;;6.05;0.60;;;14.10;99.90;;;;;;4977638;28;20051;-77
2022/09/24 11:53:13;;;;;;;3.28;0.70;;;14.10;99.90;;;;;;4977896;28;20065;-74
2022/09/24 11:55:48;;;;;;;5.38;0.60;;;14.00;99.90;;;;;;4975845;28;20057;-84
2022/09/24 11:58:18;;;;;;;2.03;0.60;;;14.10;99.90;;;;;;4977792;28;20117;-74
2022/09/24 12:00:51;;;;;;;5.40;1.15;;;14.10;99.90;;;;;;4975981;28;20494;-80
2022/09/24 12:03:22;;;;;;;4.60;0.57;;;14.10;99.90;;;;;;4976854;28;20047;-76
2022/09/24 12:05:53;;;;;;;3.72;0.70;;;13.90;99.90;;;;;;4977381;28;20134;-75
2022/09/24 12:09:00;;;;;;;6.43;1.00;;;14.00;99.90;;;;;;4976734;28;20573;-74
2022/09/24 12:11:30;;;;;;;5.13;0.80;;;14.00;99.90;;;;;;4917080;29;20084;-74
2022/09/24 12:14:07;;;;;;;3.78;1.02;;;14.20;99.90;;;;;;4966743;28;20505;-78
2022/09/24 12:16:38;;;;;;;2.90;0.70;;;14.10;99.90;;;;;;4975881;28;20059;-76
2022/09/24 12:19:24;;;;;;;2.67;0.60;;;14.00;99.90;;;;;;4976532;28;20447;-73
2022/09/24 12:21:52;;;;;;;3.95;0.85;;;14.10;99.90;;;;;;4975609;28;20069;-75
2022/09/24 12:24:29;;;;;;;3.58;0.80;;;14.30;99.90;;;;;;4976957;28;20379;-78
2022/09/24 12:26:58;;;;;;;3.75;0.90;;;14.00;99.90;;;;;;4975879;28;20503;-74
2022/09/24 12:32:53;;;;;;;4.90;0.90;;;14.20;99.90;;;;;;4976222;28;20059;-76
2022/09/24 12:35:42;;;;;;;3.47;1.17;;;14.00;99.90;;;;;;4975876;28;20494;-75
2022/09/24 12:38:24;;;;;;;6.85;1.58;;;14.10;99.90;;;;;;4976825;28;20091;-82
2022/09/24 12:40:56;;;;;;;8.15;1.38;;;14.10;99.90;;;;;;4976133;28;20046;-77
2022/09/24 12:43:33;;;;;;;5.50;1.40;;;14.10;99.90;;;;;;4976392;28;20498;-78
2022/09/24 12:46:02;;;;;;;5.15;1.80;;;14.20;99.90;;;;;;4975157;28;20061;-76
2022/09/24 12:48:33;;;;;;;4.03;1.40;;;13.80;99.90;;;;;;4975947;28;20153;-77
2022/09/24 12:51:02;;;;;;;7.85;1.55;;;13.90;99.90;;;;;;4975297;28;20043;-75
2022/09/24 12:53:40;;;;;;;5.32;1.88;;;13.90;99.90;;;;;;4975871;28;20057;-75
2022/09/24 12:56:08;;;;;;;5.35;1.65;;;14.00;99.90;;;;;;4975756;28;20053;-73
2022/09/24 12:58:45;;;;;;;4.80;1.65;;;14.10;99.90;;;;;;4975764;28;20134;-77
2022/09/24 13:01:22;;;;;;;5.00;2.08;;;14.20;99.90;;;;;;4975633;28;20152;-77
2022/09/24 13:04:13;;;;;;;4.72;2.30;;;14.20;99.90;;;;;;4975008;28;20054;-74
2022/09/24 13:06:40;;;;;;;7.28;1.83;;;14.00;99.90;;;;;;4975627;28;20053;-76
2022/09/24 13:09:35;;;;;;;8.98;2.40;;;14.00;99.90;;;;;;4975351;28;20054;-74